createdAt,value
2022-10-16T00:04:39.378Z,59.40
2022-10-16T00:14:42.852Z,59.40
2022-10-16T00:24:44.622Z,59.40
2022-10-16T00:34:46.922Z,59.40
2022-10-16T00:44:55.147Z,59.40
2022-10-16T00:54:57.987Z,59.40
2022-10-16T01:05:00.047Z,59.40
2022-10-16T01:15:26.581Z,59.40
2022-10-16T01:25:43.275Z,59.30
2022-10-16T01:36:03.529Z,59.30
2022-10-16T01:46:06.744Z,59.30
2022-10-16T01:56:12.950Z,59.30
2022-10-16T02:06:14.799Z,59.30
2022-10-16T02:16:16.985Z,59.40
2022-10-16T02:26:25.691Z,59.40
2022-10-16T02:36:28.301Z,59.30
2022-10-16T02:46:30.137Z,59.30
2022-10-16T02:56:31.983Z,59.30
2022-10-16T03:06:33.772Z,59.30
2022-10-16T03:16:35.612Z,59.30
2022-10-16T03:26:37.657Z,59.30
2022-10-16T03:36:39.405Z,59.40
2022-10-16T03:46:41.277Z,59.30
2022-10-16T03:56:43.014Z,59.30
2022-10-16T04:06:44.827Z,59.30
2022-10-16T04:16:46.600Z,59.30
2022-10-16T04:26:48.479Z,59.30
2022-10-16T04:36:50.423Z,59.30
2022-10-16T04:46:52.471Z,59.30
2022-10-16T04:56:54.243Z,59.30
2022-10-16T05:06:56.007Z,59.30
2022-10-16T05:16:58.015Z,59.40
2022-10-16T05:26:59.824Z,59.30
2022-10-16T05:37:01.637Z,59.30
2022-10-16T05:47:03.465Z,59.20
2022-10-16T05:57:06.696Z,59.20
2022-10-16T06:07:08.724Z,59.20
2022-10-16T06:17:10.500Z,59.20
2022-10-16T06:27:12.254Z,59.30
2022-10-16T06:37:14.046Z,59.20
2022-10-16T06:47:15.834Z,59.30
2022-10-16T06:57:17.699Z,59.30
2022-10-16T07:07:19.512Z,59.30
2022-10-16T07:17:21.545Z,59.30
2022-10-16T07:27:24.978Z,59.20
2022-10-16T07:37:27.049Z,59.90
2022-10-16T07:47:29.511Z,60.50
2022-10-16T07:57:32.316Z,60.80
2022-10-16T08:07:34.161Z,61.10
2022-10-16T08:17:36.038Z,61.20
2022-10-16T08:27:37.804Z,62.10
2022-10-16T08:37:40.034Z,61.30
2022-10-16T08:48:30.779Z,61.30
2022-10-16T08:58:32.791Z,61.70
2022-10-16T09:08:53.474Z,61.70
2022-10-16T09:19:22.992Z,61.60
2022-10-16T09:29:25.997Z,61.70
2022-10-16T09:39:28.120Z,61.80
2022-10-16T09:49:29.909Z,62.10
2022-10-16T09:59:32.843Z,62.10
2022-10-16T10:09:43.513Z,62.20
2022-10-16T10:19:57.612Z,62.30
2022-10-16T10:40:31.660Z,62.50
2022-10-16T10:50:45.340Z,62.30
2022-10-16T11:00:55.971Z,62.00
2022-10-16T11:11:32.344Z,62.00
2022-10-16T11:21:42.411Z,62.10
2022-10-16T11:31:53.657Z,62.20
2022-10-16T11:42:23.088Z,62.10
2022-10-16T11:52:36.482Z,62.20
2022-10-16T12:03:22.990Z,62.10
2022-10-16T12:13:31.161Z,61.60
2022-10-16T12:23:47.768Z,61.70
2022-10-16T12:34:03.153Z,62.00
2022-10-16T12:44:05.029Z,62.20
2022-10-16T12:54:14.987Z,62.20
2022-10-16T13:04:23.104Z,61.80
2022-10-16T13:15:12.691Z,61.50
2022-10-16T13:25:26.297Z,61.20
2022-10-16T13:35:33.656Z,60.90
2022-10-16T13:45:35.473Z,60.90
2022-10-16T13:55:37.316Z,60.70
2022-10-16T14:05:48.898Z,60.40
2022-10-16T14:15:52.850Z,60.70
2022-10-16T14:25:54.800Z,60.90
2022-10-16T14:36:11.573Z,61.10
2022-10-16T14:56:32.174Z,61.80
2022-10-16T15:06:35.198Z,62.20
2022-10-16T15:16:36.973Z,62.50
2022-10-16T15:26:39.081Z,63.00
2022-10-16T15:36:41.537Z,63.50
2022-10-16T15:46:43.416Z,65.20
2022-10-16T15:56:46.557Z,66.30
2022-10-16T16:06:48.520Z,68.70
2022-10-16T16:16:50.325Z,69.50
2022-10-16T16:26:52.126Z,70.00
2022-10-16T16:36:54.523Z,69.70
2022-10-16T16:46:56.423Z,68.80
2022-10-16T16:56:58.230Z,67.80
2022-10-16T17:07:00.140Z,67.20
2022-10-16T17:17:02.007Z,64.40
2022-10-16T17:27:04.308Z,64.20
2022-10-16T17:37:06.090Z,63.50
2022-10-16T17:47:07.891Z,63.30
2022-10-16T17:57:09.763Z,63.00
2022-10-16T18:07:11.640Z,62.70
2022-10-16T18:17:13.576Z,62.40
2022-10-16T18:27:15.402Z,62.00
2022-10-16T18:37:18.059Z,62.20
2022-10-16T18:47:20.025Z,62.60
2022-10-16T18:57:21.863Z,62.90
2022-10-16T19:07:23.726Z,63.80
2022-10-16T19:17:25.654Z,63.10
2022-10-16T19:27:27.489Z,63.40
2022-10-16T19:37:29.293Z,63.70
2022-10-16T19:47:31.612Z,63.90
2022-10-16T20:07:38.153Z,64.00
2022-10-16T20:17:41.495Z,64.30
2022-10-16T20:27:43.260Z,64.40
2022-10-16T20:37:48.873Z,64.20
2022-10-16T20:47:50.741Z,64.00
2022-10-16T20:57:52.800Z,63.90
2022-10-16T21:07:55.531Z,63.80
2022-10-16T21:17:57.368Z,63.80
2022-10-16T21:27:59.127Z,63.70
2022-10-16T21:38:01.652Z,63.60
2022-10-16T21:48:03.635Z,63.40
2022-10-16T21:58:05.444Z,63.20
2022-10-16T22:08:07.485Z,63.30
2022-10-16T22:18:09.254Z,62.90
2022-10-16T22:28:11.256Z,62.80
2022-10-16T22:38:13.124Z,62.60
2022-10-16T22:48:14.898Z,62.60
2022-10-16T22:58:16.701Z,62.30
2022-10-16T23:08:18.645Z,62.30
2022-10-16T23:18:20.415Z,62.00
2022-10-16T23:28:22.208Z,62.00
2022-10-16T23:38:24.159Z,61.80
2022-10-16T23:48:26.026Z,61.70
2022-10-16T23:58:27.770Z,61.70
